Time;durP1;ratioP1;P1;durP2;ratioP2;P2;SDS_P1;SDS_P2;PMS_P1;PMS_P2;Temp;Humidity;BMP_temperature;BMP_pressure;BME280_temperature;BME280_humidity;BME280_pressure;Samples;Min_cycle;Max_cycle;Signal;HPM_P1;HPM_P2
2021/12/11 00:01:49;;;;;;;;;;;;;;;;;;;;;
2021/12/11 00:04:31;;;;;;;21.30;9.40;;;-1.90;88.80;;;;;;5035625;28;20803;-84
2021/12/11 00:07:02;;;;;;;20.40;10.07;;;-1.90;88.80;;;;;;5043806;28;20057;-84
2021/12/11 00:09:33;;;;;;;17.20;9.45;;;-1.90;89.20;;;;;;5049130;28;20045;-84
2021/12/11 00:15:49;;;;;;;17.92;9.35;;;-2.00;89.20;;;;;;5029158;28;20128;-83
2021/12/11 00:18:37;;;;;;;19.02;8.75;;;-2.00;88.90;;;;;;5003155;28;20050;-84
2021/12/11 00:21:09;;;;;;;17.08;9.50;;;-2.00;89.10;;;;;;5005724;28;20057;-84
2021/12/11 00:23:52;;;;;;;23.48;10.05;;;-2.00;89.00;;;;;;5029655;28;20073;-84
2021/12/11 00:26:30;;;;;;;25.13;10.73;;;-2.00;89.50;;;;;;5024591;28;20533;-83
2021/12/11 00:28:57;;;;;;;22.77;10.27;;;-2.00;89.20;;;;;;5030477;28;20140;-84
2021/12/11 00:31:29;;;;;;;23.90;10.30;;;-2.00;89.10;;;;;;5033700;28;20232;-83
2021/12/11 00:34:00;;;;;;;20.52;10.07;;;-2.00;88.90;;;;;;5023492;28;20060;-84
2021/12/11 00:36:48;;;;;;;22.13;9.32;;;-2.00;89.10;;;;;;5009269;28;20061;-84
2021/12/11 00:39:20;;;;;;;18.88;10.20;;;-2.00;89.10;;;;;;5017986;28;20054;-84
2021/12/11 00:41:54;;;;;;;24.08;11.73;;;-2.00;89.40;;;;;;5014129;28;20029;-84
2021/12/11 00:44:43;;;;;;;28.10;10.60;;;-2.00;89.90;;;;;;5010004;28;20054;-84
2021/12/11 00:47:22;;;;;;;28.55;11.55;;;-2.00;90.30;;;;;;5042709;28;20045;-84
2021/12/11 00:49:51;;;;;;;17.60;8.85;;;-2.00;90.00;;;;;;5039826;28;20053;-83
2021/12/11 00:52:43;;;;;;;24.77;9.57;;;-2.00;89.90;;;;;;5041855;28;20053;-84
2021/12/11 00:55:21;;;;;;;17.02;9.50;;;-2.00;89.60;;;;;;5048212;28;20149;-84
2021/12/11 00:58:00;;;;;;;16.23;9.02;;;-2.00;89.40;;;;;;5037119;28;20844;-84
2021/12/11 01:00:27;;;;;;;16.85;9.02;;;-2.00;89.20;;;;;;5040544;28;20057;-84
2021/12/11 01:02:56;;;;;;;22.42;10.20;;;-2.00;89.20;;;;;;5043114;28;20049;-84
2021/12/11 01:05:24;;;;;;;18.50;9.80;;;-2.00;89.30;;;;;;5045760;28;20056;-84
2021/12/11 01:07:53;;;;;;;16.50;9.00;;;-2.00;89.30;;;;;;5041906;28;20785;-84
2021/12/11 01:10:27;;;;;;;19.98;9.93;;;-1.90;89.40;;;;;;5032333;28;20053;-84
2021/12/11 01:13:02;;;;;;;19.77;10.07;;;-1.90;89.20;;;;;;5033478;28;20841;-84
2021/12/11 01:15:44;;;;;;;19.05;9.80;;;-1.90;89.20;;;;;;5048618;28;20155;-83
2021/12/11 01:18:22;;;;;;;20.92;10.15;;;-1.90;89.30;;;;;;5047049;28;20085;-84
2021/12/11 01:21:03;;;;;;;28.42;11.13;;;-1.90;89.30;;;;;;5037945;28;20116;-84
2021/12/11 01:26:11;;;;;;;27.25;11.02;;;-1.90;89.40;;;;;;5037889;28;20516;-84
2021/12/11 01:28:39;;;;;;;21.95;10.98;;;-1.90;89.90;;;;;;5037716;28;20093;-84
2021/12/11 01:31:14;;;;;;;18.80;9.50;;;-1.90;89.80;;;;;;5039957;28;20064;-84
2021/12/11 01:33:42;;;;;;;20.77;10.02;;;-1.90;89.70;;;;;;5038375;28;20056;-84
2021/12/11 01:36:09;;;;;;;20.98;11.27;;;-1.90;89.50;;;;;;5032752;28;20863;-84
2021/12/11 01:38:39;;;;;;;18.48;9.65;;;-1.90;89.60;;;;;;5040986;28;20127;-84
2021/12/11 01:41:17;;;;;;;16.75;8.98;;;-1.90;89.90;;;;;;5042541;28;20050;-84
2021/12/11 01:43:47;;;;;;;15.55;8.50;;;-1.90;89.80;;;;;;5056885;28;20975;-84
2021/12/11 01:46:25;;;;;;;29.80;12.23;;;-1.90;89.70;;;;;;5032220;28;20054;-84
2021/12/11 01:49:01;;;;;;;27.27;12.75;;;-1.90;89.80;;;;;;5038003;28;20108;-84
2021/12/11 01:51:36;;;;;;;27.17;12.65;;;-1.90;90.30;;;;;;5045597;28;20571;-84
2021/12/11 01:54:13;;;;;;;24.50;10.98;;;-1.90;90.60;;;;;;5032286;28;20061;-84
2021/12/11 01:56:42;;;;;;;18.73;9.95;;;-1.90;91.00;;;;;;5050367;28;21006;-85
2021/12/11 01:59:19;;;;;;;24.88;12.82;;;-1.80;90.60;;;;;;5036800;28;20061;-85
2021/12/11 02:02:05;;;;;;;32.17;13.38;;;-1.80;90.40;;;;;;5047788;28;20497;-84
2021/12/11 02:04:37;;;;;;;24.00;10.55;;;-1.80;90.50;;;;;;5037736;28;20057;-84
2021/12/11 02:07:13;;;;;;;17.92;10.95;;;-1.70;90.40;;;;;;5036252;28;20432;-85
2021/12/11 02:09:51;;;;;;;18.42;10.95;;;-1.70;90.10;;;;;;5043951;28;20061;-85
2021/12/11 02:12:21;;;;;;;22.75;12.18;;;-1.70;90.00;;;;;;5036387;28;20529;-85
2021/12/11 02:14:54;;;;;;;35.25;14.57;;;-1.60;90.20;;;;;;5039964;28;20135;-84
2021/12/11 02:17:29;;;;;;;27.95;14.77;;;-1.60;90.20;;;;;;5046181;28;20050;-84
2021/12/11 02:19:58;;;;;;;31.02;15.38;;;-1.50;90.30;;;;;;5033802;28;20058;-85
2021/12/11 02:22:32;;;;;;;29.48;14.65;;;-1.50;91.20;;;;;;5031410;28;20054;-85
2021/12/11 02:25:39;;;;;;;25.70;12.85;;;-1.50;92.20;;;;;;5054419;28;20073;-84
2021/12/11 02:28:16;;;;;;;23.33;11.95;;;-1.40;91.70;;;;;;4983924;28;20535;-84
2021/12/11 02:30:52;;;;;;;21.80;11.65;;;-1.40;91.40;;;;;;4990844;28;20058;-84
2021/12/11 02:33:33;;;;;;;22.00;11.85;;;-1.40;90.90;;;;;;5006807;28;20221;-84
2021/12/11 02:36:41;;;;;;;24.08;12.55;;;-1.30;90.80;;;;;;4988905;28;20055;-84
2021/12/11 02:39:48;;;;;;;26.30;11.80;;;-1.30;90.70;;;;;;4967332;28;20147;-85
2021/12/11 02:42:35;;;;;;;27.65;13.13;;;-1.30;90.60;;;;;;4952265;28;20051;-85
2021/12/11 02:45:25;;;;;;;21.67;11.20;;;-1.30;91.10;;;;;;4966903;28;20062;-84
2021/12/11 02:48:03;;;;;;;25.58;11.77;;;-1.20;91.00;;;;;;4955418;28;20071;-84
2021/12/11 02:50:40;;;;;;;29.08;13.95;;;-1.20;91.40;;;;;;4950531;28;20054;-84
2021/12/11 02:53:15;;;;;;;21.88;12.32;;;-1.20;91.30;;;;;;4971561;28;20059;-85
2021/12/11 02:55:59;;;;;;;24.25;12.77;;;-1.10;91.60;;;;;;4971443;28;20051;-85
2021/12/11 02:58:29;;;;;;;26.75;12.45;;;-1.10;91.80;;;;;;4985464;28;20058;-85
2021/12/11 03:01:23;;;;;;;24.13;13.10;;;-1.10;91.90;;;;;;5028867;28;20086;-85
2021/12/11 03:03:59;;;;;;;29.00;13.85;;;-1.10;91.70;;;;;;5023546;28;20840;-85
2021/12/11 03:06:40;;;;;;;20.85;11.10;;;-1.10;91.60;;;;;;5018856;28;20054;-85
2021/12/11 03:09:09;;;;;;;29.02;14.27;;;-1.10;91.70;;;;;;5030206;28;20052;-85
2021/12/11 03:11:36;;;;;;;29.42;14.18;;;-1.10;92.00;;;;;;5035262;28;20057;-85
2021/12/11 03:14:04;;;;;;;27.40;11.57;;;-1.10;92.10;;;;;;5044543;28;20732;-85
2021/12/11 03:16:34;;;;;;;35.50;13.98;;;-1.10;91.90;;;;;;5037508;28;20042;-85
2021/12/11 03:19:03;;;;;;;30.65;14.13;;;-1.00;91.80;;;;;;5051760;28;20136;-85
2021/12/11 03:21:29;;;;;;;41.60;14.68;;;-1.00;92.10;;;;;;5039615;28;20197;-85
2021/12/11 03:23:57;;;;;;;32.72;15.45;;;-1.00;92.40;;;;;;5041612;28;20054;-85
2021/12/11 03:26:24;;;;;;;27.77;14.25;;;-1.00;92.60;;;;;;5044586;28;20049;-85
2021/12/11 03:28:51;;;;;;;37.65;14.88;;;-1.00;92.60;;;;;;5046600;28;20133;-85
2021/12/11 03:31:18;;;;;;;33.33;14.10;;;-0.90;92.40;;;;;;5045261;28;20061;-85
2021/12/11 03:33:48;;;;;;;33.92;13.68;;;-0.90;92.40;;;;;;5052371;28;20140;-85
2021/12/11 03:36:18;;;;;;;33.05;14.07;;;-0.90;92.50;;;;;;5047738;28;20060;-85
2021/12/11 03:38:49;;;;;;;28.08;12.77;;;-0.90;92.60;;;;;;5045944;28;20080;-85
2021/12/11 03:41:17;;;;;;;27.83;12.65;;;-0.90;92.50;;;;;;5039164;28;20517;-85
2021/12/11 03:43:45;;;;;;;22.40;11.25;;;-0.90;92.30;;;;;;5046782;28;20053;-85
2021/12/11 03:46:13;;;;;;;23.65;11.75;;;-0.90;92.10;;;;;;5036491;28;20050;-85
2021/12/11 03:48:50;;;;;;;28.42;12.27;;;-0.90;91.90;;;;;;5039645;28;20513;-85
2021/12/11 03:51:23;;;;;;;25.45;12.20;;;-0.90;92.10;;;;;;5043979;28;20053;-85
2021/12/11 03:53:50;;;;;;;23.67;11.27;;;-0.90;92.20;;;;;;5042727;28;20056;-85
2021/12/11 03:56:18;;;;;;;21.77;11.45;;;-0.90;91.90;;;;;;5037645;28;20053;-84
2021/12/11 03:58:51;;;;;;;23.50;10.85;;;-0.80;91.80;;;;;;5038440;28;20152;-85
2021/12/11 04:01:31;;;;;;;29.67;12.07;;;-0.80;91.80;;;;;;5036064;28;20088;-83
2021/12/11 04:04:08;;;;;;;23.25;11.90;;;-0.80;91.80;;;;;;5039076;28;20110;-85
2021/12/11 04:06:38;;;;;;;28.73;13.05;;;-0.70;92.00;;;;;;5048245;28;20038;-85
2021/12/11 04:09:08;;;;;;;27.63;12.40;;;-0.70;91.90;;;;;;5039082;28;20143;-85
2021/12/11 04:11:37;;;;;;;21.63;11.55;;;-0.70;91.90;;;;;;5036111;28;20056;-85
2021/12/11 04:14:10;;;;;;;24.90;11.60;;;-0.60;91.70;;;;;;5036884;28;20050;-84
2021/12/11 04:16:37;;;;;;;21.80;11.93;;;-0.60;91.70;;;;;;5039974;28;20042;-85
2021/12/11 04:19:08;;;;;;;22.08;11.63;;;-0.60;91.50;;;;;;5037439;28;20049;-85
2021/12/11 04:21:35;;;;;;;22.95;12.38;;;-0.50;91.60;;;;;;5045073;28;20064;-85
2021/12/11 04:24:04;;;;;;;28.23;12.10;;;-0.50;91.40;;;;;;5037417;28;20125;-85
2021/12/11 04:26:31;;;;;;;37.53;14.15;;;-0.50;91.50;;;;;;5043647;28;20053;-85
2021/12/11 04:28:58;;;;;;;34.47;15.73;;;-0.40;91.80;;;;;;5041264;28;20082;-85
2021/12/11 04:31:29;;;;;;;34.83;15.00;;;-0.40;92.30;;;;;;5038609;28;20077;-85
2021/12/11 04:33:59;;;;;;;27.33;13.25;;;-0.40;92.50;;;;;;5045532;28;20164;-85
2021/12/11 04:36:32;;;;;;;33.85;14.07;;;-0.40;92.80;;;;;;5046899;28;20084;-85
2021/12/11 04:39:00;;;;;;;38.97;15.10;;;-0.40;92.70;;;;;;5060494;28;20054;-85
2021/12/11 04:41:37;;;;;;;28.15;13.40;;;-0.40;92.70;;;;;;5038096;28;20064;-85
2021/12/11 04:44:11;;;;;;;28.80;13.02;;;-0.30;92.80;;;;;;5045537;28;20049;-85
2021/12/11 04:46:38;;;;;;;36.80;14.18;;;-0.30;92.90;;;;;;5038605;28;20054;-85
2021/12/11 04:49:16;;;;;;;30.63;13.35;;;-0.30;92.70;;;;;;5040378;28;20050;-85
2021/12/11 04:51:57;;;;;;;30.20;13.93;;;-0.30;92.80;;;;;;5042268;28;20057;-85
2021/12/11 04:59:54;;;;;;;35.10;15.70;;;-0.20;93.00;;;;;;5033957;28;20042;-85
2021/12/11 05:07:57;;;;;;;54.15;17.55;;;-0.20;93.90;;;;;;5040233;28;21186;-85
2021/12/11 05:10:43;;;;;;;53.17;19.20;;;-0.10;94.20;;;;;;5042468;28;20137;-85
2021/12/11 05:13:10;;;;;;;61.88;20.55;;;-0.10;94.60;;;;;;5035117;28;20053;-85
2021/12/11 05:15:40;;;;;;;49.28;18.27;;;0.00;94.90;;;;;;5038692;28;20048;-85
2021/12/11 05:18:12;;;;;;;40.30;16.23;;;0.10;95.00;;;;;;5043894;28;20057;-85
2021/12/11 05:20:41;;;;;;;60.67;19.13;;;0.00;94.90;;;;;;5058999;28;20151;-85
2021/12/11 05:23:08;;;;;;;37.28;17.08;;;0.10;94.80;;;;;;5036468;28;20064;-85
2021/12/11 05:25:35;;;;;;;73.55;21.42;;;0.10;94.70;;;;;;5033226;28;20204;-85
2021/12/11 05:28:03;;;;;;;43.15;17.77;;;0.10;94.70;;;;;;5043736;28;20132;-85
2021/12/11 05:30:36;;;;;;;37.58;17.83;;;0.20;94.90;;;;;;5039420;28;20513;-85
2021/12/11 05:33:04;;;;;;;72.28;21.27;;;0.20;94.80;;;;;;5050922;28;20499;-85
2021/12/11 05:35:35;;;;;;;97.55;26.13;;;0.30;94.60;;;;;;5041120;28;20057;-85
2021/12/11 05:38:04;;;;;;;91.38;26.58;;;0.30;95.00;;;;;;5037819;28;20930;-85
2021/12/11 05:40:35;;;;;;;88.45;25.90;;;0.50;95.40;;;;;;5049865;28;20132;-85
2021/12/11 05:43:04;;;;;;;84.10;24.30;;;0.50;95.70;;;;;;5050781;28;20722;-86
2021/12/11 05:45:32;;;;;;;77.88;24.65;;;0.60;95.80;;;;;;5046128;28;20085;-86
2021/12/11 05:47:59;;;;;;;102.65;27.08;;;0.60;95.90;;;;;;5044024;28;20090;-85
2021/12/11 05:50:39;;;;;;;104.82;26.88;;;0.70;95.90;;;;;;5053243;28;20792;-86
2021/12/11 05:53:07;;;;;;;100.32;28.38;;;0.70;96.00;;;;;;5044502;28;20049;-86
2021/12/11 05:55:36;;;;;;;141.57;31.40;;;0.80;96.00;;;;;;5041626;28;20050;-86
2021/12/11 05:58:12;;;;;;;99.85;30.27;;;0.80;96.20;;;;;;5039776;28;20077;-86
2021/12/11 06:00:47;;;;;;;123.63;28.58;;;0.90;96.20;;;;;;5059946;28;20062;-86
2021/12/11 06:03:25;;;;;;;116.15;32.15;;;0.90;96.30;;;;;;5048216;28;20050;-86
2021/12/11 06:05:52;;;;;;;123.20;30.80;;;1.00;96.50;;;;;;5041133;28;20053;-86
2021/12/11 06:08:21;;;;;;;143.88;35.55;;;1.10;96.60;;;;;;5033075;28;20838;-86
2021/12/11 06:10:50;;;;;;;177.68;33.72;;;1.10;96.70;;;;;;5044541;28;20878;-86
2021/12/11 06:13:17;;;;;;;145.18;33.03;;;1.20;96.80;;;;;;5046287;28;20581;-86
2021/12/11 06:15:48;;;;;;;156.75;33.03;;;1.20;96.80;;;;;;5050461;28;20095;-86
2021/12/11 06:18:18;;;;;;;145.52;32.42;;;1.30;96.80;;;;;;5052792;28;20128;-86
2021/12/11 06:20:47;;;;;;;161.98;34.88;;;1.30;96.90;;;;;;5042752;28;20088;-86
2021/12/11 06:23:18;;;;;;;194.25;34.95;;;1.40;96.90;;;;;;5052479;28;20128;-86
2021/12/11 06:25:46;;;;;;;176.93;32.92;;;1.40;97.00;;;;;;5053466;28;20108;-86
2021/12/11 06:28:13;;;;;;;167.90;33.10;;;1.50;97.00;;;;;;5042971;28;20160;-86
2021/12/11 06:30:40;;;;;;;128.13;32.40;;;1.50;97.00;;;;;;5052453;28;20135;-86
2021/12/11 06:33:09;;;;;;;153.05;31.85;;;1.50;97.00;;;;;;5049059;28;20041;-86
2021/12/11 06:35:56;;;;;;;113.00;29.42;;;1.60;97.10;;;;;;5044473;28;20140;-86
2021/12/11 06:38:27;;;;;;;112.68;27.13;;;1.70;97.00;;;;;;5059310;28;20078;-86
2021/12/11 06:40:56;;;;;;;114.07;27.58;;;1.70;97.00;;;;;;5048214;28;20057;-86
2021/12/11 06:43:23;;;;;;;121.43;27.65;;;1.70;96.90;;;;;;5053363;28;20081;-86
2021/12/11 06:45:51;;;;;;;98.78;26.05;;;1.70;96.80;;;;;;5050171;28;20077;-86
2021/12/11 06:48:21;;;;;;;108.88;29.60;;;1.70;96.70;;;;;;5053429;28;20963;-86
2021/12/11 06:50:50;;;;;;;112.63;28.63;;;1.80;96.70;;;;;;5045381;28;20072;-86
2021/12/11 06:53:30;;;;;;;163.85;33.22;;;1.80;96.80;;;;;;5047585;28;20054;-87
2021/12/11 06:55:59;;;;;;;109.25;29.45;;;1.80;96.80;;;;;;5052370;28;20060;-86
2021/12/11 06:58:31;;;;;;;89.13;25.05;;;1.80;96.80;;;;;;5052851;28;20045;-86
2021/12/11 07:00:59;;;;;;;119.32;27.75;;;1.80;96.70;;;;;;5046341;28;20065;-86
2021/12/11 07:03:28;;;;;;;127.25;28.23;;;1.80;96.60;;;;;;5050203;28;20539;-86
2021/12/11 07:06:01;;;;;;;160.13;31.58;;;1.80;96.60;;;;;;5053055;28;20061;-86
2021/12/11 07:08:31;;;;;;;131.38;31.45;;;1.80;96.50;;;;;;5050159;28;20062;-86
2021/12/11 07:11:00;;;;;;;123.50;28.95;;;1.90;96.50;;;;;;5068989;28;20057;-86
2021/12/11 07:13:28;;;;;;;191.13;33.13;;;1.90;96.50;;;;;;5049458;28;20050;-86
2021/12/11 07:15:58;;;;;;;111.75;29.83;;;1.90;96.50;;;;;;5049358;28;20404;-86
2021/12/11 07:18:27;;;;;;;118.43;28.02;;;1.90;96.40;;;;;;5049252;28;20053;-86
2021/12/11 07:21:00;;;;;;;135.55;31.33;;;1.90;96.40;;;;;;5042095;28;20046;-86
2021/12/11 07:23:28;;;;;;;162.70;31.00;;;1.90;96.40;;;;;;5037300;28;20184;-86
2021/12/11 07:26:02;;;;;;;111.07;30.13;;;2.00;96.40;;;;;;5046607;28;20228;-86
2021/12/11 07:28:29;;;;;;;148.73;30.42;;;2.00;96.30;;;;;;5059355;28;20069;-86
2021/12/11 07:30:59;;;;;;;115.90;29.52;;;2.00;96.30;;;;;;5044416;28;20050;-86
2021/12/11 07:33:30;;;;;;;122.40;30.17;;;2.00;96.30;;;;;;5050941;28;20057;-86
2021/12/11 07:36:04;;;;;;;179.10;32.13;;;2.00;96.30;;;;;;5050648;28;20135;-86
2021/12/11 07:38:33;;;;;;;121.60;29.42;;;2.00;96.20;;;;;;5051120;28;20092;-86
2021/12/11 07:41:06;;;;;;;88.82;26.50;;;2.10;96.20;;;;;;5034574;28;20050;-86
2021/12/11 07:43:38;;;;;;;117.03;27.70;;;2.10;96.20;;;;;;5049854;28;20055;-86
2021/12/11 07:46:09;;;;;;;105.57;27.90;;;2.10;96.20;;;;;;5052118;28;20060;-86
2021/12/11 07:48:36;;;;;;;79.78;24.80;;;2.10;96.20;;;;;;5051904;28;20155;-86
2021/12/11 07:51:04;;;;;;;86.80;26.27;;;2.10;96.10;;;;;;5050933;28;20053;-86
2021/12/11 07:53:31;;;;;;;101.90;28.75;;;2.10;96.00;;;;;;5057748;28;20045;-86
2021/12/11 07:55:58;;;;;;;88.63;24.80;;;2.10;96.00;;;;;;5051724;28;20054;-86
2021/12/11 07:58:26;;;;;;;92.40;26.65;;;2.10;96.00;;;;;;5051102;28;20078;-86
2021/12/11 08:01:00;;;;;;;132.20;28.80;;;2.10;96.00;;;;;;5048992;28;20057;-86
2021/12/11 08:03:27;;;;;;;83.50;26.67;;;2.10;96.00;;;;;;5049572;28;20050;-86
2021/12/11 08:05:56;;;;;;;103.20;25.98;;;2.10;96.10;;;;;;5053930;28;20542;-86
2021/12/11 08:08:26;;;;;;;155.20;28.45;;;2.10;96.00;;;;;;5046448;28;20050;-86
2021/12/11 08:10:59;;;;;;;101.55;27.05;;;2.10;96.10;;;;;;5040887;28;20080;-85
2021/12/11 08:13:28;;;;;;;101.65;28.52;;;2.10;96.10;;;;;;5049208;28;20057;-85
2021/12/11 08:15:58;;;;;;;107.55;27.52;;;2.10;96.10;;;;;;5054217;28;20088;-85
2021/12/11 08:18:26;;;;;;;107.13;26.95;;;2.20;96.10;;;;;;5047076;28;20495;-85
2021/12/11 08:20:55;;;;;;;116.65;28.38;;;2.20;96.10;;;;;;5047401;28;20053;-85
2021/12/11 08:23:22;;;;;;;120.88;29.00;;;2.20;96.10;;;;;;5041030;28;20049;-85
2021/12/11 08:25:54;;;;;;;153.57;28.92;;;2.20;96.20;;;;;;5042910;28;20058;-85
2021/12/11 08:28:28;;;;;;;123.28;28.48;;;2.20;96.10;;;;;;5035405;28;20049;-86
2021/12/11 08:31:01;;;;;;;121.55;27.98;;;2.30;96.10;;;;;;5037613;28;20104;-85
2021/12/11 08:33:28;;;;;;;138.32;26.63;;;2.20;96.10;;;;;;5039487;28;20045;-85
2021/12/11 08:35:55;;;;;;;133.60;26.95;;;2.20;96.00;;;;;;5037441;28;20049;-85
2021/12/11 08:38:24;;;;;;;141.57;27.15;;;2.10;95.80;;;;;;5046499;28;20065;-85
2021/12/11 08:40:58;;;;;;;253.88;28.65;;;2.10;95.90;;;;;;5049607;28;20057;-85
2021/12/11 08:43:29;;;;;;;109.00;26.10;;;2.10;95.80;;;;;;5044034;28;20048;-85
2021/12/11 08:46:09;;;;;;;158.43;29.73;;;2.10;95.70;;;;;;5033950;28;20054;-85
2021/12/11 08:48:45;;;;;;;127.13;28.27;;;2.10;95.70;;;;;;5042139;28;20061;-84
2021/12/11 08:51:23;;;;;;;250.90;32.20;;;2.10;95.70;;;;;;5047536;28;20045;-85
2021/12/11 08:53:59;;;;;;;109.13;26.35;;;2.10;95.60;;;;;;5046138;28;20827;-85
2021/12/11 08:56:26;;;;;;;142.25;27.85;;;2.20;95.50;;;;;;5044021;28;20057;-84
2021/12/11 08:58:59;;;;;;;174.85;29.95;;;2.20;95.60;;;;;;5044185;28;20053;-84
2021/12/11 09:01:52;;;;;;;144.75;28.58;;;2.20;95.60;;;;;;5035423;28;20496;-84
2021/12/11 09:05:25;;;;;;;232.88;32.05;;;2.30;95.60;;;;;;5049870;28;20053;-85
2021/12/11 09:08:12;;;;;;;164.48;28.52;;;2.40;95.60;;;;;;5026793;28;20420;-84
2021/12/11 09:11:13;;;;;;;192.20;30.83;;;2.30;95.60;;;;;;5029161;28;20120;-85
2021/12/11 09:13:59;;;;;;;151.35;28.83;;;2.40;95.60;;;;;;4966629;28;20063;-85
2021/12/11 09:16:54;;;;;;;232.90;33.53;;;2.40;95.60;;;;;;4948116;28;20051;-85
2021/12/11 09:20:13;;;;;;;;;;;;;;;;;;;;;
2021/12/11 09:23:38;;;;;;;256.08;31.67;;;2.50;95.60;;;;;;4970735;28;21028;-85
2021/12/11 09:27:13;;;;;;;;;;;;;;;;;;;;;
2021/12/11 09:30:25;;;;;;;237.57;32.58;;;2.50;95.60;;;;;;4954772;28;20063;-85
2021/12/11 09:33:08;;;;;;;427.88;40.17;;;2.60;95.60;;;;;;4965928;28;20051;-85
2021/12/11 09:39:40;;;;;;;545.83;36.33;;;2.70;95.70;;;;;;4922632;28;20055;-84
2021/12/11 09:42:11;;;;;;;454.60;32.70;;;2.70;95.70;;;;;;4914693;29;20055;-85
2021/12/11 09:45:14;;;;;;;555.27;40.37;;;2.70;95.60;;;;;;4951618;28;20070;-85
2021/12/11 09:48:08;;;;;;;411.75;34.75;;;2.70;95.60;;;;;;4978312;28;20051;-85
2021/12/11 09:51:02;;;;;;;441.35;32.53;;;2.80;95.70;;;;;;4977108;28;20043;-85
2021/12/11 09:54:00;;;;;;;583.00;35.28;;;2.80;95.70;;;;;;4981621;28;20861;-85
2021/12/11 09:57:04;;;;;;;336.83;31.52;;;2.80;95.60;;;;;;4967964;28;20066;-84
2021/12/11 09:59:49;;;;;;;514.60;34.35;;;2.80;95.60;;;;;;4966401;28;20069;-84
2021/12/11 10:06:15;;;;;;;365.65;32.55;;;2.90;95.70;;;;;;4982583;28;20051;-85
2021/12/11 10:09:59;;;;;;;413.33;31.67;;;2.90;95.60;;;;;;4987289;28;20061;-84
2021/12/11 10:12:33;;;;;;;477.42;32.10;;;2.90;95.50;;;;;;5026601;28;20898;-84
2021/12/11 10:15:34;;;;;;;445.48;30.15;;;2.90;95.40;;;;;;5030950;28;20555;-84
2021/12/11 10:18:20;;;;;;;343.77;32.35;;;2.90;95.40;;;;;;5042739;28;20054;-84
2021/12/11 10:20:55;;;;;;;641.20;40.63;;;2.90;95.50;;;;;;5040029;28;20505;-85
2021/12/11 10:23:29;;;;;;;291.35;34.22;;;3.00;95.50;;;;;;5043142;28;20108;-84
2021/12/11 10:26:03;;;;;;;627.45;47.35;;;3.00;95.60;;;;;;5040201;28;20054;-85
2021/12/11 10:28:31;;;;;;;352.00;32.63;;;3.10;95.60;;;;;;5049978;28;20050;-85
2021/12/11 10:31:07;;;;;;;391.80;29.80;;;3.10;95.60;;;;;;5045606;28;20061;-85
2021/12/11 10:33:34;;;;;;;343.38;29.02;;;3.20;95.70;;;;;;5043742;28;20144;-85
2021/12/11 10:36:14;;;;;;;605.70;43.17;;;3.20;95.70;;;;;;5045070;28;20133;-84
2021/12/11 10:38:45;;;;;;;588.75;39.75;;;3.20;95.40;;;;;;5038043;28;20054;-85
2021/12/11 10:41:25;;;;;;;334.98;30.20;;;3.20;95.60;;;;;;5048630;28;20046;-85
2021/12/11 10:43:57;;;;;;;475.40;36.55;;;3.30;95.60;;;;;;5046325;28;20065;-85
2021/12/11 10:46:32;;;;;;;527.90;35.03;;;3.30;95.50;;;;;;5043500;28;20046;-85
2021/12/11 10:49:02;;;;;;;479.58;32.58;;;3.40;95.50;;;;;;5041727;28;20073;-85
2021/12/11 10:51:34;;;;;;;379.48;27.35;;;3.40;95.50;;;;;;5033168;28;20081;-85
2021/12/11 10:54:03;;;;;;;301.23;26.52;;;3.40;95.50;;;;;;5038772;28;20061;-84
2021/12/11 10:56:34;;;;;;;322.08;27.25;;;3.50;95.50;;;;;;5042829;28;20501;-85
2021/12/11 10:59:16;;;;;;;333.08;32.40;;;3.50;95.40;;;;;;5036160;28;20505;-85
2021/12/11 11:01:50;;;;;;;359.58;34.28;;;3.50;95.30;;;;;;5034095;28;20493;-85
2021/12/11 11:04:23;;;;;;;292.55;27.80;;;3.60;95.50;;;;;;5051872;28;20046;-85
2021/12/11 11:06:51;;;;;;;269.10;28.00;;;3.60;95.50;;;;;;5058867;28;20150;-84
2021/12/11 11:09:20;;;;;;;219.13;29.63;;;3.70;95.50;;;;;;5045800;28;20779;-85
2021/12/11 11:11:50;;;;;;;138.00;25.10;;;3.80;95.60;;;;;;5042035;28;20076;-85
2021/12/11 11:14:22;;;;;;;282.20;26.77;;;3.90;95.60;;;;;;5044297;28;20108;-85
2021/12/11 11:16:55;;;;;;;124.45;22.65;;;3.90;95.60;;;;;;5038747;28;20152;-85
2021/12/11 11:19:26;;;;;;;144.00;24.27;;;3.90;95.40;;;;;;5037244;28;20049;-85
2021/12/11 11:21:59;;;;;;;176.35;25.10;;;4.00;95.40;;;;;;5041065;28;20053;-85
2021/12/11 11:24:33;;;;;;;176.70;25.35;;;4.00;95.40;;;;;;5046666;28;20053;-85
2021/12/11 11:27:03;;;;;;;104.78;21.05;;;3.90;95.00;;;;;;5051451;28;20119;-85
2021/12/11 11:29:35;;;;;;;166.63;23.10;;;3.90;95.10;;;;;;5042488;28;20057;-85
2021/12/11 11:32:09;;;;;;;97.75;21.52;;;3.90;95.00;;;;;;5041541;28;20566;-85
2021/12/11 11:34:40;;;;;;;;;;;3.90;95.10;;;;;;5050736;28;20060;-85
2021/12/11 11:37:17;;;;;;;108.77;22.40;;;4.00;95.30;;;;;;5050016;28;20737;-85
2021/12/11 11:39:43;;;;;;;119.65;25.88;;;4.10;95.30;;;;;;5049972;28;21029;-85
2021/12/11 11:42:22;;;;;;;119.60;24.90;;;4.20;95.20;;;;;;5046260;28;20137;-85
2021/12/11 11:44:52;;;;;;;114.78;25.27;;;4.20;95.20;;;;;;5038410;28;20136;-85
2021/12/11 11:47:21;;;;;;;141.20;27.23;;;4.30;95.20;;;;;;5048603;28;20083;-85
2021/12/11 11:49:58;;;;;;;92.10;24.40;;;4.30;95.30;;;;;;5048280;28;20107;-84
2021/12/11 11:52:27;;;;;;;93.07;26.00;;;4.30;95.00;;;;;;5041011;28;20050;-85
2021/12/11 11:55:08;;;;;;;70.72;25.25;;;4.40;95.00;;;;;;5043203;28;20136;-86
2021/12/11 11:57:39;;;;;;;76.28;24.77;;;4.40;95.00;;;;;;5039356;28;20077;-85
2021/12/11 12:00:18;;;;;;;79.60;25.30;;;4.50;95.10;;;;;;5045346;28;20051;-85
2021/12/11 12:02:48;;;;;;;73.25;25.15;;;4.60;95.20;;;;;;5037070;28;20141;-85
2021/12/11 12:05:15;;;;;;;93.15;25.48;;;4.60;94.80;;;;;;5035294;28;20037;-85
2021/12/11 12:07:46;;;;;;;68.75;25.63;;;4.60;94.80;;;;;;5037008;28;21305;-85
2021/12/11 12:10:17;;;;;;;74.10;25.10;;;4.70;94.90;;;;;;5066328;28;20117;-85
2021/12/11 12:12:45;;;;;;;73.15;24.42;;;4.70;94.70;;;;;;5045959;28;20057;-85
2021/12/11 12:15:18;;;;;;;65.55;24.27;;;4.70;94.60;;;;;;5035718;28;20080;-85
2021/12/11 12:17:45;;;;;;;55.60;24.08;;;4.80;94.60;;;;;;5033362;28;20391;-85
2021/12/11 12:20:16;;;;;;;73.65;25.50;;;4.90;94.60;;;;;;5043293;28;20452;-85
2021/12/11 12:22:45;;;;;;;48.65;23.48;;;4.90;94.40;;;;;;5033386;28;20875;-85
2021/12/11 12:25:12;;;;;;;48.22;23.67;;;5.00;94.10;;;;;;5037665;28;20124;-85
2021/12/11 12:27:42;;;;;;;58.28;24.83;;;5.00;93.90;;;;;;5037636;28;20050;-85
2021/12/11 12:30:26;;;;;;;47.95;23.95;;;5.00;94.10;;;;;;5033448;28;20431;-85
2021/12/11 12:32:55;;;;;;;66.47;25.35;;;5.00;94.00;;;;;;5038278;28;20812;-85
2021/12/11 12:35:28;;;;;;;56.30;24.40;;;5.00;94.00;;;;;;5045122;28;20433;-85
2021/12/11 12:37:56;;;;;;;58.63;23.30;;;5.00;94.10;;;;;;5051122;28;20545;-85
2021/12/11 12:40:41;;;;;;;63.78;25.58;;;5.10;94.10;;;;;;5037462;28;20056;-85
2021/12/11 12:43:31;;;;;;;54.58;25.67;;;5.10;94.20;;;;;;5042830;28;20229;-85
2021/12/11 12:46:28;;;;;;;74.38;24.88;;;5.20;94.20;;;;;;5042868;28;20858;-85
2021/12/11 12:48:56;;;;;;;51.33;23.35;;;5.30;94.10;;;;;;5034785;28;20050;-85
2021/12/11 12:51:29;;;;;;;50.17;24.42;;;5.40;94.10;;;;;;5045663;28;20153;-85
2021/12/11 12:53:57;;;;;;;;;;;5.40;94.10;;;;;;5037773;28;20061;-85
2021/12/11 12:56:31;;;;;;;48.67;23.27;;;5.40;94.10;;;;;;5033501;28;19925;-85
2021/12/11 12:59:07;;;;;;;56.05;23.50;;;5.50;93.80;;;;;;5053624;28;20119;-85
2021/12/11 13:01:46;;;;;;;50.58;23.15;;;5.50;93.80;;;;;;5038537;28;20855;-85
2021/12/11 13:04:22;;;;;;;47.15;22.70;;;5.50;93.90;;;;;;5046400;28;20054;-85
2021/12/11 13:06:58;;;;;;;48.00;23.35;;;5.50;93.50;;;;;;5044796;28;20505;-85
2021/12/11 13:09:33;;;;;;;54.22;24.83;;;5.60;93.70;;;;;;5034287;28;20050;-85
2021/12/11 13:12:27;;;;;;;57.63;25.42;;;5.70;93.90;;;;;;5034189;28;20103;-85
2021/12/11 13:14:57;;;;;;;46.50;24.45;;;5.70;93.70;;;;;;5042782;28;20054;-86
2021/12/11 13:17:39;;;;;;;60.40;26.70;;;5.60;93.30;;;;;;5045526;28;20923;-84
2021/12/11 13:20:21;;;;;;;54.25;26.48;;;5.60;93.10;;;;;;5044475;28;20135;-85
2021/12/11 13:22:52;;;;;;;68.90;27.65;;;5.60;93.60;;;;;;5032508;28;20060;-84
2021/12/11 13:25:33;;;;;;;54.08;26.05;;;5.50;93.60;;;;;;5039402;28;20107;-85
2021/12/11 13:28:02;;;;;;;70.65;28.25;;;5.50;93.40;;;;;;5038219;28;20061;-85
2021/12/11 13:30:35;;;;;;;86.75;29.67;;;5.60;93.50;;;;;;5032496;28;20050;-85
2021/12/11 13:33:05;;;;;;;55.63;27.65;;;5.70;93.80;;;;;;5036166;28;20053;-85
2021/12/11 13:35:37;;;;;;;52.42;27.20;;;5.70;93.70;;;;;;5042319;28;20128;-85
2021/12/11 13:38:08;;;;;;;63.25;27.65;;;5.70;93.40;;;;;;5033069;28;20053;-85